createdAt,value
2023-02-12T00:00:46.294Z,4.30
2023-02-12T00:03:13.116Z,4.40
2023-02-12T00:05:41.824Z,4.30
2023-02-12T00:08:11.948Z,4.20
2023-02-12T00:10:43.534Z,4.10
2023-02-12T00:13:13.373Z,4.10
2023-02-12T00:15:44.072Z,4.10
2023-02-12T00:18:11.476Z,4.10
2023-02-12T00:20:43.626Z,4.10
2023-02-12T00:23:11.325Z,4.20
2023-02-12T00:25:41.460Z,4.10
2023-02-12T00:28:10.845Z,4.10
2023-02-12T00:30:37.902Z,4.10
2023-02-12T00:33:04.829Z,4.10
2023-02-12T00:35:31.874Z,4.10
2023-02-12T00:37:59.074Z,4.20
2023-02-12T00:40:28.077Z,4.10
2023-02-12T00:42:54.936Z,4.20
2023-02-12T00:45:24.265Z,4.20
2023-02-12T00:47:51.574Z,4.30
2023-02-12T00:50:20.667Z,4.40
2023-02-12T00:52:47.630Z,4.30
2023-02-12T00:55:16.897Z,4.40
2023-02-12T00:57:46.045Z,4.40
2023-02-12T01:00:14.713Z,4.40
2023-02-12T01:02:44.048Z,4.40
2023-02-12T01:05:13.452Z,4.40
2023-02-12T01:07:40.800Z,4.40
2023-02-12T01:10:08.600Z,4.40
2023-02-12T01:12:38.207Z,4.30
2023-02-12T01:15:13.515Z,4.30
2023-02-12T01:17:40.539Z,4.20
2023-02-12T01:20:13.457Z,4.30
2023-02-12T01:22:40.594Z,4.30
2023-02-12T01:25:08.132Z,4.30
2023-02-12T01:27:35.182Z,4.40
2023-02-12T01:30:02.227Z,4.40
2023-02-12T01:32:31.232Z,4.40
2023-02-12T01:35:00.447Z,4.40
2023-02-12T01:37:37.271Z,4.40
2023-02-12T01:40:08.146Z,4.20
2023-02-12T01:42:35.393Z,4.30
2023-02-12T01:45:14.515Z,4.30
2023-02-12T01:47:43.350Z,4.30
2023-02-12T01:50:17.798Z,4.30
2023-02-12T01:52:51.863Z,4.20
2023-02-12T01:55:21.054Z,4.20
2023-02-12T01:57:49.076Z,4.20
2023-02-12T02:00:19.363Z,4.20
2023-02-12T02:02:52.941Z,4.30
2023-02-12T02:05:44.594Z,4.30
2023-02-12T02:08:12.010Z,4.20
2023-02-12T02:10:41.438Z,4.20
2023-02-12T02:13:27.289Z,4.20
2023-02-12T02:15:59.926Z,4.10
2023-02-12T02:18:35.230Z,4.20
2023-02-12T02:21:24.318Z,4.20
2023-02-12T02:24:35.825Z,4.30
2023-02-12T02:27:31.652Z,4.20
2023-02-12T02:30:06.772Z,4.20
2023-02-12T02:32:46.695Z,4.20
2023-02-12T02:35:30.210Z,4.10
2023-02-12T02:38:10.937Z,4.20
2023-02-12T02:40:53.709Z,4.20
2023-02-12T02:43:35.255Z,4.20
2023-02-12T02:46:20.496Z,4.10
2023-02-12T02:48:53.343Z,4.20
2023-02-12T02:51:26.943Z,4.20
2023-02-12T02:54:01.713Z,4.10
2023-02-12T02:56:30.736Z,4.10
2023-02-12T02:59:03.818Z,4.10
2023-02-12T03:01:44.441Z,4.20
2023-02-12T03:04:19.701Z,4.30
2023-02-12T03:06:58.135Z,4.30
2023-02-12T03:09:35.689Z,4.30
2023-02-12T03:12:15.368Z,4.30
2023-02-12T03:14:52.166Z,4.20
2023-02-12T03:17:24.725Z,4.10
2023-02-12T03:20:24.742Z,4.00
2023-02-12T03:23:03.472Z,4.00
2023-02-12T03:25:39.949Z,4.10
2023-02-12T03:28:26.002Z,4.10
2023-02-12T03:31:12.153Z,4.10
2023-02-12T03:33:44.702Z,4.00
2023-02-12T03:36:45.347Z,4.00
2023-02-12T03:39:29.125Z,4.10
2023-02-12T03:42:20.612Z,4.20
2023-02-12T03:44:58.442Z,4.00
2023-02-12T03:47:38.195Z,3.90
2023-02-12T03:50:19.832Z,3.90
2023-02-12T03:52:50.133Z,4.00
2023-02-12T03:55:17.824Z,4.10
2023-02-12T03:57:50.425Z,4.20
2023-02-12T04:00:23.538Z,4.10
2023-02-12T04:02:51.585Z,4.00
2023-02-12T04:05:24.586Z,4.10
2023-02-12T04:07:56.665Z,4.10
2023-02-12T04:10:58.319Z,4.20
2023-02-12T04:13:49.628Z,4.10
2023-02-12T04:16:36.975Z,4.10
2023-02-12T04:19:54.337Z,4.20
2023-02-12T04:22:33.067Z,4.10
2023-02-12T04:25:14.649Z,4.20
2023-02-12T04:27:56.976Z,4.20
2023-02-12T04:30:41.165Z,4.30
2023-02-12T04:33:18.778Z,4.30
2023-02-12T04:35:55.475Z,4.20
2023-02-12T04:38:25.371Z,4.20
2023-02-12T04:40:52.976Z,4.30
2023-02-12T04:43:36.439Z,4.30
2023-02-12T04:46:05.401Z,4.30
2023-02-12T04:48:34.643Z,4.30
2023-02-12T04:51:02.064Z,4.30
2023-02-12T04:53:31.309Z,4.20
2023-02-12T04:55:58.455Z,4.30
2023-02-12T04:58:25.565Z,4.30
2023-02-12T05:00:52.480Z,4.30
2023-02-12T05:03:21.731Z,4.30
2023-02-12T05:05:48.613Z,4.10
2023-02-12T05:08:15.542Z,4.00
2023-02-12T05:10:44.645Z,4.00
2023-02-12T05:13:13.870Z,4.00
2023-02-12T05:15:40.885Z,4.00
2023-02-12T05:18:09.917Z,4.00
2023-02-12T05:20:39.059Z,4.10
2023-02-12T05:23:05.957Z,4.10
2023-02-12T05:25:32.801Z,4.20
2023-02-12T05:28:00.349Z,4.20
2023-02-12T05:30:27.629Z,4.20
2023-02-12T05:32:54.835Z,4.20
2023-02-12T05:35:21.724Z,4.10
2023-02-12T05:37:48.660Z,4.10
2023-02-12T05:40:20.096Z,4.00
2023-02-12T05:42:49.299Z,3.90
2023-02-12T05:45:16.255Z,3.90
2023-02-12T05:47:43.118Z,3.90
2023-02-12T05:50:10.408Z,3.80
2023-02-12T05:52:37.208Z,3.90
2023-02-12T05:55:04.379Z,3.90
2023-02-12T05:57:31.261Z,4.00
2023-02-12T05:59:58.217Z,4.10
2023-02-12T06:02:25.110Z,4.10
2023-02-12T06:04:52.196Z,4.10
2023-02-12T06:07:21.623Z,4.10
2023-02-12T06:09:48.649Z,4.00
2023-02-12T06:12:15.638Z,4.00
2023-02-12T06:14:42.787Z,4.00
2023-02-12T06:17:09.759Z,4.10
2023-02-12T06:19:37.179Z,4.10
2023-02-12T06:22:03.997Z,4.10
2023-02-12T06:24:33.413Z,4.00
2023-02-12T06:27:02.666Z,4.00
2023-02-12T06:29:31.975Z,4.00
2023-02-12T06:31:59.067Z,4.00
2023-02-12T06:34:26.346Z,4.00
2023-02-12T06:36:53.209Z,3.90
2023-02-12T06:39:23.013Z,4.00
2023-02-12T06:41:50.193Z,3.90
2023-02-12T06:44:19.450Z,4.00
2023-02-12T06:46:46.658Z,4.00
2023-02-12T06:49:15.090Z,4.00
2023-02-12T06:52:06.974Z,4.00
2023-02-12T06:57:01.391Z,4.00
2023-02-12T06:59:28.405Z,4.10
2023-02-12T07:01:55.523Z,4.10
2023-02-12T07:04:22.573Z,4.20
2023-02-12T07:06:52.656Z,4.20
2023-02-12T07:09:19.621Z,4.10
2023-02-12T07:11:46.588Z,4.00
2023-02-12T07:14:17.427Z,3.90
2023-02-12T07:16:44.432Z,3.90
2023-02-12T07:19:14.289Z,3.80
2023-02-12T07:21:41.301Z,3.80
2023-02-12T07:24:11.929Z,3.80
2023-02-12T07:26:39.502Z,3.70
2023-02-12T07:31:34.042Z,3.60
2023-02-12T07:34:01.177Z,3.60
2023-02-12T07:36:33.456Z,3.60
2023-02-12T07:39:04.239Z,3.80
2023-02-12T07:41:37.809Z,4.00
2023-02-12T07:44:10.927Z,4.10
2023-02-12T07:47:09.126Z,4.10
2023-02-12T07:52:45.328Z,4.20
2023-02-12T07:55:20.220Z,4.30
2023-02-12T07:57:47.219Z,4.50
2023-02-12T08:00:23.649Z,4.50
2023-02-12T08:02:53.283Z,4.50
2023-02-12T08:05:20.904Z,4.60
2023-02-12T08:07:47.964Z,4.80
2023-02-12T08:10:15.065Z,5.00
2023-02-12T08:12:44.593Z,5.00
2023-02-12T08:15:11.407Z,5.10
2023-02-12T08:17:42.342Z,5.30
2023-02-12T08:20:12.348Z,5.60
2023-02-12T08:22:39.259Z,5.90
2023-02-12T08:25:09.050Z,6.00
2023-02-12T08:27:40.870Z,6.20
2023-02-12T08:30:08.464Z,6.40
2023-02-12T08:32:38.519Z,6.40
2023-02-12T08:35:05.878Z,6.60
2023-02-12T08:37:32.996Z,6.60
2023-02-12T08:39:59.895Z,6.60
2023-02-12T08:42:27.993Z,6.80
2023-02-12T08:44:57.653Z,6.90
2023-02-12T08:47:24.472Z,6.90
2023-02-12T08:49:51.352Z,6.80
2023-02-12T08:52:19.449Z,6.90
2023-02-12T08:54:48.845Z,7.00
2023-02-12T08:57:17.929Z,7.00
2023-02-12T08:59:45.048Z,7.10
2023-02-12T09:02:12.092Z,7.20
2023-02-12T09:04:40.090Z,7.20
2023-02-12T09:07:10.918Z,7.30
2023-02-12T09:09:38.023Z,7.40
2023-02-12T09:12:07.531Z,7.40
2023-02-12T09:14:34.391Z,7.50
2023-02-12T09:17:01.362Z,7.30
2023-02-12T09:19:28.425Z,7.40
2023-02-12T09:21:56.790Z,7.60
2023-02-12T09:24:28.270Z,7.80
2023-02-12T09:26:55.929Z,8.00
2023-02-12T09:29:24.199Z,8.00
2023-02-12T09:31:56.675Z,8.20
2023-02-12T09:35:19.324Z,8.20
2023-02-12T09:37:47.949Z,8.20
2023-02-12T09:40:27.397Z,8.20
2023-02-12T09:43:18.382Z,8.50
2023-02-12T09:45:58.542Z,8.70
2023-02-12T09:48:40.687Z,8.70
2023-02-12T09:51:09.362Z,8.60
2023-02-12T09:53:49.655Z,8.80
2023-02-12T09:56:21.072Z,8.80
2023-02-12T09:58:52.873Z,8.90
2023-02-12T10:01:22.087Z,9.00
2023-02-12T10:03:52.035Z,9.00
2023-02-12T10:06:24.623Z,9.20
2023-02-12T10:09:17.344Z,9.40
2023-02-12T10:11:54.024Z,9.50
2023-02-12T10:14:21.017Z,9.70
2023-02-12T10:17:18.367Z,10.00
2023-02-12T10:19:49.177Z,10.20
2023-02-12T10:22:37.554Z,10.20
2023-02-12T10:25:48.588Z,10.30
2023-02-12T10:28:21.034Z,9.90
2023-02-12T10:31:04.500Z,9.90
2023-02-12T10:33:35.610Z,10.00
2023-02-12T10:36:18.443Z,10.10
2023-02-12T10:38:53.297Z,10.40
2023-02-12T10:41:20.297Z,10.50
2023-02-12T10:43:49.981Z,10.60
2023-02-12T10:46:19.588Z,10.50
2023-02-12T10:48:59.022Z,10.70
2023-02-12T10:51:55.045Z,10.80
2023-02-12T10:54:44.534Z,10.80
2023-02-12T10:57:21.838Z,10.90
2023-02-12T10:59:51.034Z,10.90
2023-02-12T11:02:28.624Z,11.00
2023-02-12T11:04:58.058Z,11.00
2023-02-12T11:07:26.301Z,10.90
2023-02-12T11:09:57.287Z,10.90
2023-02-12T11:12:42.433Z,10.90
2023-02-12T11:15:16.407Z,10.90
2023-02-12T11:18:05.785Z,10.80
2023-02-12T11:20:42.138Z,10.80
2023-02-12T11:23:24.218Z,10.90
2023-02-12T11:26:07.593Z,10.70
2023-02-12T11:28:37.143Z,10.80
2023-02-12T11:31:15.398Z,11.00
2023-02-12T11:33:42.703Z,10.90
2023-02-12T11:36:36.159Z,10.80
2023-02-12T11:39:07.756Z,10.70
2023-02-12T11:41:40.697Z,10.80
2023-02-12T11:44:13.450Z,10.60
2023-02-12T11:46:47.352Z,10.50
2023-02-12T11:49:23.264Z,10.70
2023-02-12T11:51:55.320Z,10.90
2023-02-12T11:54:28.967Z,10.80
2023-02-12T11:57:00.675Z,11.00
2023-02-12T11:59:27.602Z,10.90
2023-02-12T12:01:56.103Z,10.90
2023-02-12T12:04:29.035Z,11.00
2023-02-12T12:07:22.666Z,11.10
2023-02-12T12:10:19.667Z,11.10
2023-02-12T12:12:56.849Z,11.10
2023-02-12T12:15:47.587Z,11.00
2023-02-12T12:56:29.583Z,9.90
2023-02-12T12:59:15.444Z,9.90
2023-02-12T13:02:23.370Z,9.90
2023-02-12T13:05:24.291Z,10.00
2023-02-12T13:08:05.285Z,9.90
2023-02-12T13:11:02.261Z,9.70
2023-02-12T13:13:29.186Z,9.60
2023-02-12T13:16:04.517Z,9.50
2023-02-12T13:18:54.810Z,9.50
2023-02-12T13:21:36.515Z,9.40
2023-02-12T13:24:12.255Z,9.10
2023-02-12T13:26:58.796Z,9.20
2023-02-12T13:29:30.902Z,9.20
2023-02-12T13:32:05.458Z,9.20
2023-02-12T13:34:35.715Z,9.20
2023-02-12T13:37:05.220Z,9.30
2023-02-12T13:39:37.698Z,9.30
2023-02-12T13:42:07.421Z,9.10
2023-02-12T13:44:51.426Z,9.00
2023-02-12T13:47:52.396Z,8.90
2023-02-12T13:50:43.450Z,8.80
2023-02-12T13:53:13.497Z,8.90
2023-02-12T13:56:02.293Z,9.00
2023-02-12T13:58:35.426Z,9.10
2023-02-12T14:01:07.788Z,9.10
2023-02-12T14:03:37.092Z,9.20
2023-02-12T14:06:13.096Z,9.20
2023-02-12T14:08:43.977Z,9.10
2023-02-12T14:11:17.619Z,9.10
2023-02-12T14:13:50.549Z,9.10
2023-02-12T14:16:29.741Z,9.10
2023-02-12T14:19:34.583Z,9.10
2023-02-12T14:22:22.599Z,9.00
2023-02-12T14:24:56.602Z,9.00
2023-02-12T14:27:33.902Z,9.00
2023-02-12T14:30:07.803Z,9.10
2023-02-12T14:32:55.166Z,9.10
2023-02-12T14:35:36.719Z,9.00
2023-02-12T14:38:11.803Z,8.90
2023-02-12T14:40:50.191Z,9.00
2023-02-12T14:43:33.798Z,8.90
2023-02-12T14:46:22.780Z,8.90
2023-02-12T14:48:56.165Z,8.90
2023-02-12T14:51:48.498Z,8.80
2023-02-12T14:54:37.144Z,8.90
2023-02-12T14:57:32.680Z,8.90
2023-02-12T15:00:31.196Z,8.90
2023-02-12T15:03:07.334Z,8.90
2023-02-12T15:05:53.404Z,8.90
2023-02-12T15:08:41.467Z,8.80
2023-02-12T15:11:35.630Z,8.70
2023-02-12T15:14:27.226Z,8.70
2023-02-12T15:17:14.427Z,8.70
2023-02-12T15:20:02.783Z,8.60
2023-02-12T15:22:43.277Z,8.60
2023-02-12T15:25:25.272Z,8.60
2023-02-12T15:27:58.443Z,8.60
2023-02-12T15:30:33.003Z,8.60
2023-02-12T15:33:04.281Z,8.50
2023-02-12T15:35:44.295Z,8.50
2023-02-12T15:38:21.935Z,8.40
2023-02-12T15:40:57.538Z,8.30
2023-02-12T15:43:34.975Z,8.20
2023-02-12T15:46:07.748Z,8.20
2023-02-12T15:48:39.724Z,8.10
2023-02-12T15:51:20.488Z,8.10
2023-02-12T15:53:50.394Z,8.00
2023-02-12T15:56:20.528Z,7.90
2023-02-12T15:58:53.768Z,7.90
2023-02-12T16:01:27.336Z,7.90
2023-02-12T16:04:03.186Z,7.90
2023-02-12T16:06:39.383Z,7.80
2023-02-12T16:09:34.099Z,7.70
2023-02-12T16:12:13.578Z,7.70
2023-02-12T16:14:50.089Z,7.60
2023-02-12T16:17:26.164Z,7.50
2023-02-12T16:19:58.315Z,7.40
2023-02-12T16:22:30.888Z,7.30
2023-02-12T16:25:01.306Z,7.20
2023-02-12T16:27:36.265Z,7.10
2023-02-12T16:30:08.559Z,6.90
2023-02-12T16:32:40.893Z,6.90
2023-02-12T16:35:10.708Z,6.90
2023-02-12T16:37:37.739Z,6.70
2023-02-12T16:40:21.841Z,6.70
2023-02-12T16:42:48.795Z,6.50
2023-02-12T16:45:28.171Z,6.50
2023-02-12T16:48:05.370Z,6.50
2023-02-12T16:50:34.190Z,6.50
2023-02-12T16:53:07.035Z,6.30
2023-02-12T16:55:38.467Z,6.20
2023-02-12T16:58:05.543Z,6.10
2023-02-12T17:00:34.734Z,6.10
2023-02-12T17:03:01.796Z,6.00
2023-02-12T17:05:28.782Z,5.90
2023-02-12T17:07:55.804Z,5.90
2023-02-12T17:10:22.736Z,5.80
2023-02-12T17:12:52.491Z,5.70
2023-02-12T17:15:33.470Z,5.60
2023-02-12T17:18:00.432Z,5.50
2023-02-12T17:20:32.037Z,5.40
2023-02-12T17:23:01.203Z,5.40
2023-02-12T17:25:31.462Z,5.30
2023-02-12T17:27:58.950Z,5.30
2023-02-12T17:30:26.801Z,5.20
2023-02-12T17:32:53.812Z,5.10
2023-02-12T17:35:20.893Z,5.10
2023-02-12T17:37:53.125Z,5.00
2023-02-12T17:40:20.572Z,5.10
2023-02-12T17:42:47.617Z,5.00
2023-02-12T17:45:14.834Z,4.90
2023-02-12T17:47:41.856Z,4.80
2023-02-12T17:50:14.438Z,4.70
2023-02-12T17:52:43.597Z,4.60
2023-02-12T17:55:14.220Z,4.50
2023-02-12T17:57:43.162Z,4.40
2023-02-12T18:00:12.111Z,4.40
2023-02-12T18:02:39.420Z,4.30
2023-02-12T18:05:06.789Z,4.20
2023-02-12T18:07:38.082Z,4.10
2023-02-12T18:10:10.085Z,4.20
2023-02-12T18:12:40.625Z,4.30
2023-02-12T18:15:10.648Z,4.50
2023-02-12T18:17:41.133Z,4.40
2023-02-12T18:20:09.217Z,4.20
2023-02-12T18:22:36.170Z,4.10
2023-02-12T18:25:04.035Z,4.00
2023-02-12T18:27:36.722Z,3.90
2023-02-12T18:30:03.993Z,3.80
2023-02-12T18:32:33.921Z,3.70
2023-02-12T18:35:03.187Z,3.60
2023-02-12T18:37:30.076Z,3.60
2023-02-12T18:39:57.120Z,3.50
2023-02-12T18:42:28.492Z,3.40
2023-02-12T18:44:55.512Z,3.30
2023-02-12T18:47:22.444Z,3.20
2023-02-12T18:49:49.442Z,3.10
2023-02-12T18:52:16.483Z,3.00
2023-02-12T18:54:45.609Z,3.00
2023-02-12T18:57:12.544Z,2.90
2023-02-12T18:59:41.683Z,2.80
2023-02-12T19:02:08.754Z,2.80
2023-02-12T19:04:35.990Z,2.70
2023-02-12T19:07:05.661Z,2.70
2023-02-12T19:09:35.383Z,2.70
2023-02-12T19:12:02.802Z,2.60
2023-02-12T19:14:30.256Z,2.60
2023-02-12T19:16:59.290Z,2.50
2023-02-12T19:19:26.938Z,2.50
2023-02-12T19:21:53.773Z,2.50
2023-02-12T19:24:20.937Z,2.40
2023-02-12T19:26:52.046Z,2.30
2023-02-12T19:29:19.069Z,2.30
2023-02-12T19:31:48.836Z,2.30
2023-02-12T19:34:19.654Z,2.30
2023-02-12T19:36:50.016Z,2.20
2023-02-12T19:39:20.340Z,2.10
2023-02-12T19:41:47.954Z,2.00
2023-02-12T19:44:21.281Z,2.00
2023-02-12T19:46:51.671Z,1.90
2023-02-12T19:49:27.799Z,1.90
2023-02-12T19:51:55.431Z,1.80
2023-02-12T19:54:23.934Z,1.80
2023-02-12T19:56:52.829Z,1.80
2023-02-12T19:59:21.597Z,1.70
2023-02-12T20:01:51.524Z,1.70
2023-02-12T20:04:20.970Z,1.60
2023-02-12T20:07:10.914Z,1.60
2023-02-12T20:09:38.241Z,1.50
2023-02-12T20:12:05.504Z,1.50
2023-02-12T20:14:33.620Z,1.40
2023-02-12T20:19:31.407Z,1.40
2023-02-12T20:22:01.515Z,1.40
2023-02-12T20:24:31.637Z,1.30
2023-02-12T20:27:01.040Z,1.30
2023-02-12T20:29:28.998Z,1.30
2023-02-12T20:34:23.832Z,1.20
2023-02-12T20:36:50.984Z,1.10
2023-02-12T20:39:20.094Z,1.10
2023-02-12T20:41:47.952Z,1.10
2023-02-12T20:44:18.650Z,1.00
2023-02-12T20:46:46.973Z,1.00
2023-02-12T20:49:18.504Z,0.90
2023-02-12T20:51:46.376Z,0.90
2023-02-12T21:01:57.042Z,0.80
2023-02-12T21:09:25.654Z,0.60
2023-02-12T21:16:51.977Z,0.50
2023-02-12T21:21:48.080Z,0.40
2023-02-12T21:24:21.398Z,0.40
2023-02-12T21:26:52.951Z,0.40
2023-02-12T21:31:49.995Z,0.20
2023-02-12T21:34:22.684Z,0.20
2023-02-12T21:36:51.051Z,0.10
2023-02-12T21:39:29.811Z,0.10
2023-02-12T21:42:02.930Z,0.10
2023-02-12T21:44:36.157Z,0.10
2023-02-12T21:47:12.346Z,0.00
2023-02-12T21:49:39.865Z,0.00
2023-02-12T21:52:06.977Z,0.00
2023-02-12T21:54:46.276Z,0.00
2023-02-12T21:57:19.941Z,0.00
2023-02-12T21:59:47.506Z,0.00
2023-02-12T22:02:21.013Z,-0.10
2023-02-12T22:04:49.966Z,-0.10
2023-02-12T22:07:17.227Z,-0.10
2023-02-12T22:09:45.439Z,-0.10
2023-02-12T22:12:12.661Z,-0.10
2023-02-12T22:14:39.631Z,-0.10
2023-02-12T22:17:06.567Z,0.00
2023-02-12T22:19:36.045Z,0.00
2023-02-12T22:22:03.143Z,0.00
2023-02-12T22:24:32.321Z,0.00
2023-02-12T22:27:00.136Z,0.10
2023-02-12T22:29:29.294Z,0.10
2023-02-12T22:31:56.409Z,0.10
2023-02-12T22:34:23.558Z,0.10
2023-02-12T22:36:50.552Z,0.10
2023-02-12T22:39:17.925Z,0.00
2023-02-12T22:41:44.985Z,-0.10
2023-02-12T22:44:13.489Z,-0.10
2023-02-12T22:46:44.134Z,-0.10
2023-02-12T22:53:29.840Z,-0.20
2023-02-12T22:55:56.727Z,-0.20
2023-02-12T22:58:24.054Z,-0.30
2023-02-12T23:00:51.252Z,-0.20
2023-02-12T23:08:13.105Z,-0.50
2023-02-12T23:13:07.394Z,-0.60
2023-02-12T23:15:34.388Z,-0.60
2023-02-12T23:18:04.294Z,-0.70
2023-02-12T23:20:31.436Z,-0.70
2023-02-12T23:22:58.757Z,-0.70
2023-02-12T23:25:25.892Z,-0.70
2023-02-12T23:27:53.142Z,-0.70
2023-02-12T23:30:20.333Z,-0.70
2023-02-12T23:32:47.510Z,-0.80
2023-02-12T23:35:14.693Z,-0.80
2023-02-12T23:37:41.681Z,-0.80
2023-02-12T23:40:09.430Z,-0.80
2023-02-12T23:42:36.413Z,-0.90
2023-02-12T23:45:03.710Z,-0.80
2023-02-12T23:47:30.818Z,-0.90
2023-02-12T23:49:57.807Z,-0.90
2023-02-12T23:52:24.851Z,-0.90
2023-02-12T23:54:54.524Z,-0.90
2023-02-12T23:57:21.624Z,-0.90
2023-02-12T23:59:48.702Z,-0.90
